sensor_id;sensor_type;location;lat;lon;timestamp;pressure;altitude;pressure_sealevel;temperature
44429;BMP180;30134;47.866;-4.222;2023-07-02T00:02:11;101305.00;;;25.30
44429;BMP180;30134;47.866;-4.222;2023-07-02T00:04:37;101307.00;;;25.40
44429;BMP180;30134;47.866;-4.222;2023-07-02T00:07:03;101303.00;;;25.30
44429;BMP180;30134;47.866;-4.222;2023-07-02T00:09:30;101301.00;;;25.20
44429;BMP180;30134;47.866;-4.222;2023-07-02T00:11:56;101298.00;;;25.20
44429;BMP180;30134;47.866;-4.222;2023-07-02T00:14:23;101301.00;;;25.20
44429;BMP180;30134;47.866;-4.222;2023-07-02T00:16:53;101305.00;;;25.20
44429;BMP180;30134;47.866;-4.222;2023-07-02T00:19:19;101301.00;;;25.20
44429;BMP180;30134;47.866;-4.222;2023-07-02T00:21:46;101304.00;;;25.20
44429;BMP180;30134;47.866;-4.222;2023-07-02T00:24:12;101299.00;;;25.30
44429;BMP180;30134;47.866;-4.222;2023-07-02T00:26:39;101300.00;;;25.30
44429;BMP180;30134;47.866;-4.222;2023-07-02T00:29:06;101296.00;;;25.30
44429;BMP180;30134;47.866;-4.222;2023-07-02T00:31:34;101296.00;;;25.30
44429;BMP180;30134;47.866;-4.222;2023-07-02T00:34:00;101292.00;;;25.30
44429;BMP180;30134;47.866;-4.222;2023-07-02T00:36:28;101288.00;;;25.30
44429;BMP180;30134;47.866;-4.222;2023-07-02T00:38:54;101275.00;;;25.30
44429;BMP180;30134;47.866;-4.222;2023-07-02T00:41:21;101284.00;;;25.40
44429;BMP180;30134;47.866;-4.222;2023-07-02T00:43:48;101279.00;;;25.30
44429;BMP180;30134;47.866;-4.222;2023-07-02T00:46:16;101275.00;;;25.30
44429;BMP180;30134;47.866;-4.222;2023-07-02T00:48:48;101271.00;;;25.20
44429;BMP180;30134;47.866;-4.222;2023-07-02T00:51:20;101279.00;;;25.30
44429;BMP180;30134;47.866;-4.222;2023-07-02T00:53:48;101281.00;;;25.30
44429;BMP180;30134;47.866;-4.222;2023-07-02T00:56:15;101282.00;;;25.30
44429;BMP180;30134;47.866;-4.222;2023-07-02T00:58:47;101287.00;;;25.30
44429;BMP180;30134;47.866;-4.222;2023-07-02T01:01:27;101284.00;;;25.20
44429;BMP180;30134;47.866;-4.222;2023-07-02T01:04:03;101281.00;;;25.30
44429;BMP180;30134;47.866;-4.222;2023-07-02T01:06:33;101278.00;;;25.30
44429;BMP180;30134;47.866;-4.222;2023-07-02T01:09:05;101275.00;;;25.20
44429;BMP180;30134;47.866;-4.222;2023-07-02T01:11:40;101278.00;;;25.20
44429;BMP180;30134;47.866;-4.222;2023-07-02T01:14:46;101281.00;;;25.30
44429;BMP180;30134;47.866;-4.222;2023-07-02T01:17:06;101281.00;;;25.30
44429;BMP180;30134;47.866;-4.222;2023-07-02T01:19:49;101288.00;;;25.30
44429;BMP180;30134;47.866;-4.222;2023-07-02T01:22:23;101284.00;;;25.30
44429;BMP180;30134;47.866;-4.222;2023-07-02T01:24:51;101285.00;;;25.30
44429;BMP180;30134;47.866;-4.222;2023-07-02T01:27:17;101291.00;;;25.30
44429;BMP180;30134;47.866;-4.222;2023-07-02T01:29:44;101292.00;;;25.30
44429;BMP180;30134;47.866;-4.222;2023-07-02T01:32:13;101301.00;;;25.20
44429;BMP180;30134;47.866;-4.222;2023-07-02T01:34:40;101301.00;;;25.30
44429;BMP180;30134;47.866;-4.222;2023-07-02T01:37:07;101305.00;;;25.30
44429;BMP180;30134;47.866;-4.222;2023-07-02T01:39:35;101300.00;;;25.30
44429;BMP180;30134;47.866;-4.222;2023-07-02T01:42:15;101296.00;;;25.30
44429;BMP180;30134;47.866;-4.222;2023-07-02T01:44:43;101294.00;;;25.20
44429;BMP180;30134;47.866;-4.222;2023-07-02T01:47:09;101290.00;;;25.30
44429;BMP180;30134;47.866;-4.222;2023-07-02T01:49:35;101286.00;;;25.30
44429;BMP180;30134;47.866;-4.222;2023-07-02T01:52:05;101287.00;;;25.30
44429;BMP180;30134;47.866;-4.222;2023-07-02T01:54:33;101296.00;;;25.20
44429;BMP180;30134;47.866;-4.222;2023-07-02T01:56:59;101295.00;;;25.30
44429;BMP180;30134;47.866;-4.222;2023-07-02T01:59:26;101293.00;;;25.30
44429;BMP180;30134;47.866;-4.222;2023-07-02T02:01:52;101290.00;;;25.30
44429;BMP180;30134;47.866;-4.222;2023-07-02T02:04:19;101282.00;;;25.20
44429;BMP180;30134;47.866;-4.222;2023-07-02T02:06:45;101284.00;;;25.20
44429;BMP180;30134;47.866;-4.222;2023-07-02T02:09:11;101281.00;;;25.20
44429;BMP180;30134;47.866;-4.222;2023-07-02T02:11:44;101293.00;;;25.20
44429;BMP180;30134;47.866;-4.222;2023-07-02T02:14:11;101297.00;;;25.20
44429;BMP180;30134;47.866;-4.222;2023-07-02T02:16:37;101298.00;;;25.20
44429;BMP180;30134;47.866;-4.222;2023-07-02T02:19:06;101289.00;;;25.20
44429;BMP180;30134;47.866;-4.222;2023-07-02T02:21:32;101285.00;;;25.20
44429;BMP180;30134;47.866;-4.222;2023-07-02T02:23:58;101296.00;;;25.20
44429;BMP180;30134;47.866;-4.222;2023-07-02T02:26:24;101300.00;;;25.10
44429;BMP180;30134;47.866;-4.222;2023-07-02T02:28:53;101305.00;;;25.20
44429;BMP180;30134;47.866;-4.222;2023-07-02T02:31:19;101305.00;;;25.20
44429;BMP180;30134;47.866;-4.222;2023-07-02T02:33:45;101300.00;;;25.20
44429;BMP180;30134;47.866;-4.222;2023-07-02T02:36:12;101302.00;;;25.30
44429;BMP180;30134;47.866;-4.222;2023-07-02T02:38:38;101299.00;;;25.20
44429;BMP180;30134;47.866;-4.222;2023-07-02T02:41:04;101297.00;;;25.20
44429;BMP180;30134;47.866;-4.222;2023-07-02T02:43:32;101298.00;;;25.10
44429;BMP180;30134;47.866;-4.222;2023-07-02T02:46:00;101299.00;;;25.00
44429;BMP180;30134;47.866;-4.222;2023-07-02T02:48:25;101294.00;;;25.20
44429;BMP180;30134;47.866;-4.222;2023-07-02T02:50:51;101299.00;;;25.10
44429;BMP180;30134;47.866;-4.222;2023-07-02T02:53:17;101303.00;;;25.20
44429;BMP180;30134;47.866;-4.222;2023-07-02T02:55:43;101295.00;;;25.20
44429;BMP180;30134;47.866;-4.222;2023-07-02T02:58:09;101297.00;;;25.30
44429;BMP180;30134;47.866;-4.222;2023-07-02T03:00:36;101303.00;;;25.20
44429;BMP180;30134;47.866;-4.222;2023-07-02T03:03:02;101304.00;;;25.20
44429;BMP180;30134;47.866;-4.222;2023-07-02T03:05:28;101296.00;;;25.10
44429;BMP180;30134;47.866;-4.222;2023-07-02T03:07:54;101296.00;;;25.10
44429;BMP180;30134;47.866;-4.222;2023-07-02T03:10:20;101295.00;;;25.10
44429;BMP180;30134;47.866;-4.222;2023-07-02T03:12:48;101296.00;;;25.10
44429;BMP180;30134;47.866;-4.222;2023-07-02T03:15:14;101305.00;;;25.00
44429;BMP180;30134;47.866;-4.222;2023-07-02T03:17:40;101301.00;;;25.10
44429;BMP180;30134;47.866;-4.222;2023-07-02T03:20:07;101309.00;;;25.20
44429;BMP180;30134;47.866;-4.222;2023-07-02T03:22:36;101315.00;;;25.20
44429;BMP180;30134;47.866;-4.222;2023-07-02T03:25:02;101306.00;;;25.00
44429;BMP180;30134;47.866;-4.222;2023-07-02T03:27:28;101310.00;;;25.20
44429;BMP180;30134;47.866;-4.222;2023-07-02T03:29:54;101307.00;;;25.20
44429;BMP180;30134;47.866;-4.222;2023-07-02T03:32:20;101312.00;;;25.00
44429;BMP180;30134;47.866;-4.222;2023-07-02T03:34:46;101308.00;;;25.20
44429;BMP180;30134;47.866;-4.222;2023-07-02T03:37:12;101308.00;;;25.10
44429;BMP180;30134;47.866;-4.222;2023-07-02T03:39:38;101314.00;;;25.00
44429;BMP180;30134;47.866;-4.222;2023-07-02T03:42:06;101310.00;;;25.00
44429;BMP180;30134;47.866;-4.222;2023-07-02T03:44:32;101305.00;;;25.10
44429;BMP180;30134;47.866;-4.222;2023-07-02T03:46:58;101311.00;;;25.20
44429;BMP180;30134;47.866;-4.222;2023-07-02T03:49:24;101307.00;;;25.10
44429;BMP180;30134;47.866;-4.222;2023-07-02T03:51:50;101307.00;;;25.10
44429;BMP180;30134;47.866;-4.222;2023-07-02T03:54:16;101306.00;;;25.10
44429;BMP180;30134;47.866;-4.222;2023-07-02T03:56:43;101303.00;;;25.00
44429;BMP180;30134;47.866;-4.222;2023-07-02T03:59:09;101305.00;;;25.00
44429;BMP180;30134;47.866;-4.222;2023-07-02T04:01:35;101299.00;;;25.00
44429;BMP180;30134;47.866;-4.222;2023-07-02T04:04:01;101302.00;;;25.10
44429;BMP180;30134;47.866;-4.222;2023-07-02T04:06:27;101302.00;;;25.10
44429;BMP180;30134;47.866;-4.222;2023-07-02T04:08:53;101303.00;;;25.10
44429;BMP180;30134;47.866;-4.222;2023-07-02T04:11:19;101308.00;;;25.10
44429;BMP180;30134;47.866;-4.222;2023-07-02T04:13:45;101302.00;;;25.00
44429;BMP180;30134;47.866;-4.222;2023-07-02T04:16:11;101309.00;;;25.00
44429;BMP180;30134;47.866;-4.222;2023-07-02T04:18:40;101306.00;;;25.00
44429;BMP180;30134;47.866;-4.222;2023-07-02T04:21:06;101318.00;;;25.00
44429;BMP180;30134;47.866;-4.222;2023-07-02T04:23:32;101307.00;;;25.00
44429;BMP180;30134;47.866;-4.222;2023-07-02T04:25:58;101310.00;;;25.00
44429;BMP180;30134;47.866;-4.222;2023-07-02T04:28:24;101314.00;;;24.90
44429;BMP180;30134;47.866;-4.222;2023-07-02T04:30:50;101318.00;;;25.00
44429;BMP180;30134;47.866;-4.222;2023-07-02T04:33:17;101314.00;;;25.10
44429;BMP180;30134;47.866;-4.222;2023-07-02T04:35:43;101313.00;;;25.10
44429;BMP180;30134;47.866;-4.222;2023-07-02T04:38:09;101312.00;;;25.00
44429;BMP180;30134;47.866;-4.222;2023-07-02T04:40:39;101317.00;;;25.00
44429;BMP180;30134;47.866;-4.222;2023-07-02T04:43:07;101317.00;;;25.00
44429;BMP180;30134;47.866;-4.222;2023-07-02T04:45:33;101324.00;;;25.00
44429;BMP180;30134;47.866;-4.222;2023-07-02T04:48:05;101316.00;;;25.00
44429;BMP180;30134;47.866;-4.222;2023-07-02T04:50:31;101318.00;;;25.00
44429;BMP180;30134;47.866;-4.222;2023-07-02T04:52:57;101334.00;;;25.00
44429;BMP180;30134;47.866;-4.222;2023-07-02T04:55:23;101318.00;;;25.00
44429;BMP180;30134;47.866;-4.222;2023-07-02T04:57:49;101330.00;;;25.00
44429;BMP180;30134;47.866;-4.222;2023-07-02T05:00:16;101330.00;;;25.00
44429;BMP180;30134;47.866;-4.222;2023-07-02T05:02:42;101334.00;;;25.00
44429;BMP180;30134;47.866;-4.222;2023-07-02T05:05:08;101333.00;;;25.00
44429;BMP180;30134;47.866;-4.222;2023-07-02T05:07:34;101330.00;;;25.00
44429;BMP180;30134;47.866;-4.222;2023-07-02T05:10:00;101334.00;;;25.00
44429;BMP180;30134;47.866;-4.222;2023-07-02T05:12:26;101346.00;;;24.90
44429;BMP180;30134;47.866;-4.222;2023-07-02T05:14:52;101341.00;;;25.00
44429;BMP180;30134;47.866;-4.222;2023-07-02T05:17:23;101344.00;;;24.90
44429;BMP180;30134;47.866;-4.222;2023-07-02T05:19:49;101336.00;;;24.90
44429;BMP180;30134;47.866;-4.222;2023-07-02T05:22:15;101348.00;;;25.00
44429;BMP180;30134;47.866;-4.222;2023-07-02T05:24:41;101346.00;;;25.00
44429;BMP180;30134;47.866;-4.222;2023-07-02T05:27:07;101346.00;;;24.90
44429;BMP180;30134;47.866;-4.222;2023-07-02T05:29:33;101349.00;;;24.90
44429;BMP180;30134;47.866;-4.222;2023-07-02T05:31:59;101350.00;;;24.90
44429;BMP180;30134;47.866;-4.222;2023-07-02T05:34:25;101352.00;;;24.90
44429;BMP180;30134;47.866;-4.222;2023-07-02T05:36:51;101345.00;;;25.00
44429;BMP180;30134;47.866;-4.222;2023-07-02T05:39:17;101350.00;;;24.80
44429;BMP180;30134;47.866;-4.222;2023-07-02T05:41:43;101356.00;;;24.90
44429;BMP180;30134;47.866;-4.222;2023-07-02T05:44:09;101358.00;;;25.00
44429;BMP180;30134;47.866;-4.222;2023-07-02T05:46:35;101358.00;;;24.90
44429;BMP180;30134;47.866;-4.222;2023-07-02T05:49:01;101355.00;;;24.90
44429;BMP180;30134;47.866;-4.222;2023-07-02T05:51:27;101351.00;;;24.90
44429;BMP180;30134;47.866;-4.222;2023-07-02T05:53:53;101346.00;;;25.00
44429;BMP180;30134;47.866;-4.222;2023-07-02T05:56:19;101351.00;;;24.90
44429;BMP180;30134;47.866;-4.222;2023-07-02T05:58:46;101351.00;;;25.00
44429;BMP180;30134;47.866;-4.222;2023-07-02T06:01:13;101355.00;;;24.90
44429;BMP180;30134;47.866;-4.222;2023-07-02T06:03:40;101357.00;;;24.80
44429;BMP180;30134;47.866;-4.222;2023-07-02T06:06:06;101365.00;;;25.00
44429;BMP180;30134;47.866;-4.222;2023-07-02T06:08:32;101359.00;;;24.90
44429;BMP180;30134;47.866;-4.222;2023-07-02T06:10:58;101362.00;;;25.00
44429;BMP180;30134;47.866;-4.222;2023-07-02T06:13:23;101365.00;;;24.90
44429;BMP180;30134;47.866;-4.222;2023-07-02T06:15:49;101362.00;;;24.90
44429;BMP180;30134;47.866;-4.222;2023-07-02T06:18:16;101364.00;;;24.90
44429;BMP180;30134;47.866;-4.222;2023-07-02T06:20:43;101374.00;;;24.90
44429;BMP180;30134;47.866;-4.222;2023-07-02T06:23:13;101368.00;;;24.90
44429;BMP180;30134;47.866;-4.222;2023-07-02T06:25:39;101369.00;;;24.90
44429;BMP180;30134;47.866;-4.222;2023-07-02T06:28:05;101375.00;;;24.90
44429;BMP180;30134;47.866;-4.222;2023-07-02T06:30:31;101373.00;;;24.90
44429;BMP180;30134;47.866;-4.222;2023-07-02T06:32:57;101379.00;;;24.90
44429;BMP180;30134;47.866;-4.222;2023-07-02T06:35:23;101373.00;;;25.00
44429;BMP180;30134;47.866;-4.222;2023-07-02T06:37:49;101371.00;;;24.90
44429;BMP180;30134;47.866;-4.222;2023-07-02T06:40:15;101373.00;;;24.90
44429;BMP180;30134;47.866;-4.222;2023-07-02T06:42:41;101374.00;;;24.90
44429;BMP180;30134;47.866;-4.222;2023-07-02T06:45:07;101378.00;;;24.90
44429;BMP180;30134;47.866;-4.222;2023-07-02T06:47:34;101382.00;;;25.00
44429;BMP180;30134;47.866;-4.222;2023-07-02T06:50:00;101382.00;;;25.00
44429;BMP180;30134;47.866;-4.222;2023-07-02T06:52:26;101379.00;;;24.90
44429;BMP180;30134;47.866;-4.222;2023-07-02T06:54:52;101387.00;;;25.00
44429;BMP180;30134;47.866;-4.222;2023-07-02T06:57:18;101389.00;;;25.00
44429;BMP180;30134;47.866;-4.222;2023-07-02T06:59:44;101385.00;;;25.00
44429;BMP180;30134;47.866;-4.222;2023-07-02T07:02:10;101391.00;;;24.90
44429;BMP180;30134;47.866;-4.222;2023-07-02T07:04:36;101389.00;;;25.00
44429;BMP180;30134;47.866;-4.222;2023-07-02T07:07:02;101392.00;;;25.00
44429;BMP180;30134;47.866;-4.222;2023-07-02T07:09:31;101397.00;;;24.90
44429;BMP180;30134;47.866;-4.222;2023-07-02T07:11:58;101394.00;;;24.90
44429;BMP180;30134;47.866;-4.222;2023-07-02T07:14:24;101394.00;;;24.90
44429;BMP180;30134;47.866;-4.222;2023-07-02T07:16:50;101400.00;;;24.90
44429;BMP180;30134;47.866;-4.222;2023-07-02T07:19:17;101396.00;;;24.90
44429;BMP180;30134;47.866;-4.222;2023-07-02T07:21:43;101395.00;;;25.00
44429;BMP180;30134;47.866;-4.222;2023-07-02T07:24:09;101392.00;;;25.00
44429;BMP180;30134;47.866;-4.222;2023-07-02T07:26:35;101401.00;;;24.90
44429;BMP180;30134;47.866;-4.222;2023-07-02T07:29:01;101404.00;;;25.10
44429;BMP180;30134;47.866;-4.222;2023-07-02T07:31:28;101394.00;;;25.00
44429;BMP180;30134;47.866;-4.222;2023-07-02T07:33:54;101391.00;;;24.90
44429;BMP180;30134;47.866;-4.222;2023-07-02T07:36:20;101393.00;;;24.90
44429;BMP180;30134;47.866;-4.222;2023-07-02T07:38:46;101404.00;;;24.90
44429;BMP180;30134;47.866;-4.222;2023-07-02T07:41:12;101398.00;;;24.90
44429;BMP180;30134;47.866;-4.222;2023-07-02T07:43:39;101395.00;;;24.90
44429;BMP180;30134;47.866;-4.222;2023-07-02T07:46:05;101404.00;;;24.90
44429;BMP180;30134;47.866;-4.222;2023-07-02T07:48:31;101400.00;;;24.80
44429;BMP180;30134;47.866;-4.222;2023-07-02T07:50:57;101407.00;;;24.80
44429;BMP180;30134;47.866;-4.222;2023-07-02T07:53:23;101404.00;;;24.80
44429;BMP180;30134;47.866;-4.222;2023-07-02T07:55:49;101399.00;;;24.80
44429;BMP180;30134;47.866;-4.222;2023-07-02T07:58:15;101399.00;;;24.70
44429;BMP180;30134;47.866;-4.222;2023-07-02T08:00:41;101403.00;;;24.70
44429;BMP180;30134;47.866;-4.222;2023-07-02T08:03:07;101410.00;;;24.70
44429;BMP180;30134;47.866;-4.222;2023-07-02T08:05:33;101408.00;;;24.90
44429;BMP180;30134;47.866;-4.222;2023-07-02T08:07:59;101403.00;;;25.00
44429;BMP180;30134;47.866;-4.222;2023-07-02T08:10:25;101410.00;;;25.00
44429;BMP180;30134;47.866;-4.222;2023-07-02T08:12:51;101407.00;;;25.00
44429;BMP180;30134;47.866;-4.222;2023-07-02T08:15:21;101410.00;;;25.00
44429;BMP180;30134;47.866;-4.222;2023-07-02T08:17:47;101413.00;;;25.00
44429;BMP180;30134;47.866;-4.222;2023-07-02T08:20:13;101415.00;;;24.90
44429;BMP180;30134;47.866;-4.222;2023-07-02T08:22:40;101406.00;;;25.00
44429;BMP180;30134;47.866;-4.222;2023-07-02T08:25:07;101408.00;;;25.00
44429;BMP180;30134;47.866;-4.222;2023-07-02T08:27:34;101415.00;;;25.00
44429;BMP180;30134;47.866;-4.222;2023-07-02T08:30:00;101416.00;;;25.00
44429;BMP180;30134;47.866;-4.222;2023-07-02T08:32:26;101428.00;;;25.10
44429;BMP180;30134;47.866;-4.222;2023-07-02T08:34:52;101423.00;;;25.00
44429;BMP180;30134;47.866;-4.222;2023-07-02T08:37:20;101419.00;;;25.00
44429;BMP180;30134;47.866;-4.222;2023-07-02T08:39:48;101429.00;;;25.00
44429;BMP180;30134;47.866;-4.222;2023-07-02T08:42:14;101419.00;;;25.00
44429;BMP180;30134;47.866;-4.222;2023-07-02T08:44:42;101430.00;;;24.90
44429;BMP180;30134;47.866;-4.222;2023-07-02T08:47:11;101432.00;;;25.10
44429;BMP180;30134;47.866;-4.222;2023-07-02T08:49:37;101427.00;;;25.10
44429;BMP180;30134;47.866;-4.222;2023-07-02T08:52:03;101424.00;;;25.10
44429;BMP180;30134;47.866;-4.222;2023-07-02T08:54:29;101429.00;;;25.10
44429;BMP180;30134;47.866;-4.222;2023-07-02T08:56:55;101436.00;;;25.00
44429;BMP180;30134;47.866;-4.222;2023-07-02T08:59:22;101426.00;;;25.00
44429;BMP180;30134;47.866;-4.222;2023-07-02T09:01:52;101434.00;;;25.10
44429;BMP180;30134;47.866;-4.222;2023-07-02T09:04:27;101435.00;;;25.00
44429;BMP180;30134;47.866;-4.222;2023-07-02T09:07:08;101428.00;;;25.10
44429;BMP180;30134;47.866;-4.222;2023-07-02T09:09:46;101424.00;;;25.10
44429;BMP180;30134;47.866;-4.222;2023-07-02T09:12:26;101425.00;;;25.10
44429;BMP180;30134;47.866;-4.222;2023-07-02T09:15:04;101416.00;;;25.10
44429;BMP180;30134;47.866;-4.222;2023-07-02T09:17:38;101420.00;;;25.10
44429;BMP180;30134;47.866;-4.222;2023-07-02T09:20:06;101420.00;;;25.00
44429;BMP180;30134;47.866;-4.222;2023-07-02T09:22:36;101425.00;;;25.10
44429;BMP180;30134;47.866;-4.222;2023-07-02T09:25:03;101427.00;;;25.10
44429;BMP180;30134;47.866;-4.222;2023-07-02T09:27:40;101429.00;;;25.20
44429;BMP180;30134;47.866;-4.222;2023-07-02T09:30:15;101427.00;;;25.10
44429;BMP180;30134;47.866;-4.222;2023-07-02T09:32:43;101425.00;;;25.00
44429;BMP180;30134;47.866;-4.222;2023-07-02T09:35:11;101425.00;;;25.00
44429;BMP180;30134;47.866;-4.222;2023-07-02T09:37:38;101432.00;;;25.10
44429;BMP180;30134;47.866;-4.222;2023-07-02T09:40:06;101432.00;;;25.10
44429;BMP180;30134;47.866;-4.222;2023-07-02T09:42:35;101441.00;;;25.00
44429;BMP180;30134;47.866;-4.222;2023-07-02T09:45:03;101437.00;;;24.80
44429;BMP180;30134;47.866;-4.222;2023-07-02T09:47:36;101431.00;;;24.50
44429;BMP180;30134;47.866;-4.222;2023-07-02T09:50:05;101437.00;;;24.20
44429;BMP180;30134;47.866;-4.222;2023-07-02T09:52:34;101431.00;;;24.20
44429;BMP180;30134;47.866;-4.222;2023-07-02T09:55:00;101439.00;;;24.10
44429;BMP180;30134;47.866;-4.222;2023-07-02T09:57:27;101440.00;;;24.10
44429;BMP180;30134;47.866;-4.222;2023-07-02T09:59:59;101436.00;;;24.00
44429;BMP180;30134;47.866;-4.222;2023-07-02T10:02:25;101438.00;;;24.10
44429;BMP180;30134;47.866;-4.222;2023-07-02T10:04:51;101438.00;;;24.10
44429;BMP180;30134;47.866;-4.222;2023-07-02T10:07:29;101435.00;;;24.00
44429;BMP180;30134;47.866;-4.222;2023-07-02T10:09:56;101436.00;;;24.00
44429;BMP180;30134;47.866;-4.222;2023-07-02T10:12:28;101439.00;;;24.00
44429;BMP180;30134;47.866;-4.222;2023-07-02T10:14:56;101438.00;;;24.00
44429;BMP180;30134;47.866;-4.222;2023-07-02T10:17:34;101438.00;;;24.00
44429;BMP180;30134;47.866;-4.222;2023-07-02T10:20:06;101447.00;;;24.00
44429;BMP180;30134;47.866;-4.222;2023-07-02T10:22:47;101449.00;;;24.00
44429;BMP180;30134;47.866;-4.222;2023-07-02T10:25:33;101445.00;;;23.90
44429;BMP180;30134;47.866;-4.222;2023-07-02T10:28:01;101432.00;;;23.90
44429;BMP180;30134;47.866;-4.222;2023-07-02T10:30:38;101445.00;;;23.90
44429;BMP180;30134;47.866;-4.222;2023-07-02T10:33:13;101439.00;;;23.90
44429;BMP180;30134;47.866;-4.222;2023-07-02T10:35:41;101437.00;;;23.90
44429;BMP180;30134;47.866;-4.222;2023-07-02T10:38:13;101441.00;;;23.90
44429;BMP180;30134;47.866;-4.222;2023-07-02T10:40:42;101443.00;;;23.90
44429;BMP180;30134;47.866;-4.222;2023-07-02T10:43:09;101443.00;;;23.90
44429;BMP180;30134;47.866;-4.222;2023-07-02T10:45:35;101434.00;;;23.80
44429;BMP180;30134;47.866;-4.222;2023-07-02T10:48:20;101434.00;;;23.80
44429;BMP180;30134;47.866;-4.222;2023-07-02T10:50:46;101452.00;;;23.80
44429;BMP180;30134;47.866;-4.222;2023-07-02T10:53:19;101439.00;;;23.70
44429;BMP180;30134;47.866;-4.222;2023-07-02T10:55:52;101438.00;;;23.70
44429;BMP180;30134;47.866;-4.222;2023-07-02T10:58:19;101448.00;;;23.70
44429;BMP180;30134;47.866;-4.222;2023-07-02T11:00:48;101452.00;;;23.70
44429;BMP180;30134;47.866;-4.222;2023-07-02T11:03:25;101446.00;;;23.80
44429;BMP180;30134;47.866;-4.222;2023-07-02T11:05:53;101444.00;;;23.80
44429;BMP180;30134;47.866;-4.222;2023-07-02T11:08:19;101446.00;;;23.80
44429;BMP180;30134;47.866;-4.222;2023-07-02T11:10:47;101443.00;;;23.70
44429;BMP180;30134;47.866;-4.222;2023-07-02T11:13:18;101452.00;;;23.70
44429;BMP180;30134;47.866;-4.222;2023-07-02T11:15:45;101440.00;;;23.70
44429;BMP180;30134;47.866;-4.222;2023-07-02T11:18:16;101441.00;;;23.70
44429;BMP180;30134;47.866;-4.222;2023-07-02T11:20:44;101437.00;;;23.80
44429;BMP180;30134;47.866;-4.222;2023-07-02T11:23:24;101436.00;;;23.60
44429;BMP180;30134;47.866;-4.222;2023-07-02T11:26:01;101442.00;;;23.60
44429;BMP180;30134;47.866;-4.222;2023-07-02T11:28:29;101436.00;;;23.50
44429;BMP180;30134;47.866;-4.222;2023-07-02T11:30:58;101437.00;;;23.50
44429;BMP180;30134;47.866;-4.222;2023-07-02T11:33:39;101438.00;;;23.60
44429;BMP180;30134;47.866;-4.222;2023-07-02T11:36:06;101440.00;;;23.50
44429;BMP180;30134;47.866;-4.222;2023-07-02T11:38:39;101448.00;;;23.60
44429;BMP180;30134;47.866;-4.222;2023-07-02T11:41:05;101438.00;;;23.50
44429;BMP180;30134;47.866;-4.222;2023-07-02T11:43:32;101437.00;;;23.50
44429;BMP180;30134;47.866;-4.222;2023-07-02T11:45:59;101448.00;;;23.50
44429;BMP180;30134;47.866;-4.222;2023-07-02T11:48:25;101434.00;;;23.60
44429;BMP180;30134;47.866;-4.222;2023-07-02T11:50:51;101447.00;;;23.50
44429;BMP180;30134;47.866;-4.222;2023-07-02T11:53:17;101444.00;;;23.70
44429;BMP180;30134;47.866;-4.222;2023-07-02T11:55:43;101449.00;;;23.60
44429;BMP180;30134;47.866;-4.222;2023-07-02T11:58:09;101440.00;;;23.70
44429;BMP180;30134;47.866;-4.222;2023-07-02T12:00:35;101448.00;;;23.90
44429;BMP180;30134;47.866;-4.222;2023-07-02T12:03:01;101445.00;;;23.90
44429;BMP180;30134;47.866;-4.222;2023-07-02T12:05:27;101450.00;;;23.90
44429;BMP180;30134;47.866;-4.222;2023-07-02T12:07:53;101448.00;;;24.00
44429;BMP180;30134;47.866;-4.222;2023-07-02T12:10:19;101448.00;;;24.00
44429;BMP180;30134;47.866;-4.222;2023-07-02T12:12:45;101453.00;;;24.00
44429;BMP180;30134;47.866;-4.222;2023-07-02T12:15:11;101449.00;;;24.00
44429;BMP180;30134;47.866;-4.222;2023-07-02T12:17:37;101456.00;;;24.00
44429;BMP180;30134;47.866;-4.222;2023-07-02T12:20:04;101455.00;;;24.10
44429;BMP180;30134;47.866;-4.222;2023-07-02T12:22:30;101444.00;;;24.00
44429;BMP180;30134;47.866;-4.222;2023-07-02T12:24:56;101450.00;;;24.10
44429;BMP180;30134;47.866;-4.222;2023-07-02T12:27:23;101441.00;;;24.20
44429;BMP180;30134;47.866;-4.222;2023-07-02T12:29:51;101442.00;;;24.20
44429;BMP180;30134;47.866;-4.222;2023-07-02T12:32:17;101438.00;;;24.20
44429;BMP180;30134;47.866;-4.222;2023-07-02T12:34:43;101430.00;;;24.20
44429;BMP180;30134;47.866;-4.222;2023-07-02T12:37:08;101437.00;;;24.20
44429;BMP180;30134;47.866;-4.222;2023-07-02T12:39:34;101437.00;;;24.20
44429;BMP180;30134;47.866;-4.222;2023-07-02T12:42:00;101434.00;;;24.20
44429;BMP180;30134;47.866;-4.222;2023-07-02T12:44:26;101435.00;;;24.30
44429;BMP180;30134;47.866;-4.222;2023-07-02T12:46:52;101436.00;;;24.30
44429;BMP180;30134;47.866;-4.222;2023-07-02T12:49:18;101439.00;;;24.30
44429;BMP180;30134;47.866;-4.222;2023-07-02T12:51:44;101445.00;;;24.30
44429;BMP180;30134;47.866;-4.222;2023-07-02T12:54:10;101437.00;;;24.30
44429;BMP180;30134;47.866;-4.222;2023-07-02T12:56:36;101443.00;;;24.20
44429;BMP180;30134;47.866;-4.222;2023-07-02T12:59:03;101441.00;;;24.30
44429;BMP180;30134;47.866;-4.222;2023-07-02T13:01:28;101444.00;;;24.30
44429;BMP180;30134;47.866;-4.222;2023-07-02T13:03:54;101446.00;;;24.30
44429;BMP180;30134;47.866;-4.222;2023-07-02T13:06:21;101440.00;;;24.40
44429;BMP180;30134;47.866;-4.222;2023-07-02T13:08:47;101439.00;;;24.30
44429;BMP180;30134;47.866;-4.222;2023-07-02T13:11:13;101441.00;;;24.30
44429;BMP180;30134;47.866;-4.222;2023-07-02T13:13:40;101445.00;;;24.30
44429;BMP180;30134;47.866;-4.222;2023-07-02T13:16:06;101436.00;;;24.40
44429;BMP180;30134;47.866;-4.222;2023-07-02T13:18:32;101437.00;;;24.50
44429;BMP180;30134;47.866;-4.222;2023-07-02T13:20:58;101436.00;;;24.40
44429;BMP180;30134;47.866;-4.222;2023-07-02T13:23:24;101433.00;;;24.40
44429;BMP180;30134;47.866;-4.222;2023-07-02T13:25:50;101440.00;;;24.40
44429;BMP180;30134;47.866;-4.222;2023-07-02T13:28:16;101437.00;;;24.50
44429;BMP180;30134;47.866;-4.222;2023-07-02T13:30:42;101432.00;;;24.40
44429;BMP180;30134;47.866;-4.222;2023-07-02T13:33:08;101437.00;;;24.50
44429;BMP180;30134;47.866;-4.222;2023-07-02T13:35:34;101440.00;;;24.40
44429;BMP180;30134;47.866;-4.222;2023-07-02T13:38:02;101440.00;;;24.30
44429;BMP180;30134;47.866;-4.222;2023-07-02T13:40:30;101443.00;;;24.20
44429;BMP180;30134;47.866;-4.222;2023-07-02T13:42:56;101440.00;;;24.30
44429;BMP180;30134;47.866;-4.222;2023-07-02T13:45:23;101440.00;;;24.40
44429;BMP180;30134;47.866;-4.222;2023-07-02T13:47:48;101436.00;;;24.50